Lone Star Executive Airport Houston US
ICAO: KCXO
IATA: CXO
Category: Medium
Scheduled Services: No

Elevation: 245 ft
TransAlt. 18000 ft.

Airport Communications:
HOUSTON APP/DEP:119.7
ASOS:118.325
CLNC DEL:119.55
RDO:122.2
CTAF/UNICOM:122.95

KCXO Zoom In..

Runways:

(A) RW 01 length 5000 ft width 100 ft
---- / hdg 12

(B) RW 14 length 6000 ft width 150 ft
ILS 108.70 / hdg 140

(C) RW 19 length 5000 ft width 100 ft
---- / hdg 192

(D) RW 32 length 6000 ft width 150 ft
---- / hdg 320

Location; KCXO
Day. 20 / Time. 19.53 Zulu
* Altimeter: 29.97
* Temperature: 36° c. 96.8°f.
* Wind from: 230° Speed 07 kn.
Dewpoint: 21° c.
Visibility: 10 Statute Miles.
Clouds: Clear (automated report).

KCXO 201953Z 23007KT 200V260 10SM CLR 36/21 A2997 RMK AO2 SLP144 T03560211


Wind From 230°
Speed 07 kn.

 
 
jpsmedia.com for Web Design worldairports.se 2018   terms of use